createdAt,value
2019-04-16T00:00:06.436Z,998.61
2019-04-16T00:01:06.472Z,998.65
2019-04-16T00:02:06.504Z,998.63
2019-04-16T00:03:06.543Z,998.61
2019-04-16T00:04:06.582Z,998.66
2019-04-16T00:05:06.619Z,998.62
2019-04-16T00:06:06.658Z,998.62
2019-04-16T00:07:06.696Z,998.63
2019-04-16T00:08:19.379Z,998.64
2019-04-16T00:09:06.910Z,998.60
2019-04-16T00:10:06.810Z,998.63
2019-04-16T00:11:06.855Z,998.60
2019-04-16T00:12:06.894Z,998.62
2019-04-16T00:13:06.930Z,998.59
2019-04-16T00:14:06.970Z,998.55
2019-04-16T00:15:07.013Z,998.57
2019-04-16T00:16:07.041Z,998.53
2019-04-16T00:17:07.075Z,998.52
2019-04-16T00:18:07.114Z,998.48
2019-04-16T00:19:07.152Z,998.48
2019-04-16T00:20:07.279Z,998.44
2019-04-16T00:21:09.932Z,998.47
2019-04-16T00:22:11.495Z,998.48
2019-04-16T00:23:07.306Z,998.46
2019-04-16T00:24:07.342Z,998.46
2019-04-16T00:25:07.383Z,998.44
2019-04-16T00:26:07.432Z,998.46
2019-04-16T00:27:07.456Z,998.44
2019-04-16T00:28:07.493Z,998.46
2019-04-16T00:29:07.533Z,998.48
2019-04-16T00:30:07.570Z,998.40
2019-04-16T00:31:07.609Z,998.41
2019-04-16T00:32:09.396Z,998.47
2019-04-16T00:33:10.541Z,998.42
2019-04-16T00:34:07.723Z,998.44
2019-04-16T00:35:07.767Z,998.42
2019-04-16T00:36:07.798Z,998.41
2019-04-16T00:37:07.837Z,998.42
2019-04-16T00:38:07.874Z,998.41
2019-04-16T00:39:07.911Z,998.40
2019-04-16T00:40:07.958Z,998.38
2019-04-16T00:41:07.988Z,998.39
2019-04-16T00:42:08.026Z,998.38
2019-04-16T00:43:08.064Z,998.37
2019-04-16T00:44:08.102Z,998.35
2019-04-16T00:45:08.143Z,998.32
2019-04-16T00:46:11.401Z,998.35
2019-04-16T00:47:08.215Z,998.34
2019-04-16T00:48:08.258Z,998.32
2019-04-16T00:49:08.294Z,998.33
2019-04-16T00:50:08.330Z,998.33
2019-04-16T00:51:08.366Z,998.32
2019-04-16T00:52:08.405Z,998.33
2019-04-16T00:53:09.051Z,998.34
2019-04-16T00:54:10.352Z,998.33
2019-04-16T00:55:08.516Z,998.36
2019-04-16T00:56:08.560Z,998.37
2019-04-16T00:57:08.593Z,998.35
2019-04-16T00:58:08.629Z,998.33
2019-04-16T00:59:08.670Z,998.40
2019-04-16T01:00:08.704Z,998.38
2019-04-16T01:01:08.741Z,998.39
2019-04-16T01:02:08.846Z,998.39
2019-04-16T01:03:09.030Z,998.37
2019-04-16T01:04:09.132Z,998.40
2019-04-16T01:05:09.079Z,998.34
2019-04-16T01:06:08.972Z,998.34
2019-04-16T01:07:08.976Z,998.39
2019-04-16T01:08:09.005Z,998.38
2019-04-16T01:09:09.043Z,998.38
2019-04-16T01:10:09.175Z,998.40
2019-04-16T01:11:09.126Z,998.38
2019-04-16T01:12:09.249Z,998.39
2019-04-16T01:13:09.193Z,998.41
2019-04-16T01:14:09.231Z,998.38
2019-04-16T01:15:09.269Z,998.38
2019-04-16T01:16:09.306Z,998.37
2019-04-16T01:17:09.343Z,998.35
2019-04-16T01:18:09.381Z,998.37
2019-04-16T01:19:10.838Z,998.35
2019-04-16T01:20:12.647Z,998.35
2019-04-16T01:21:13.785Z,998.37
2019-04-16T01:22:09.531Z,998.34
2019-04-16T01:23:09.760Z,998.35
2019-04-16T01:24:09.781Z,998.34
2019-04-16T01:25:09.794Z,998.37
2019-04-16T01:26:09.680Z,998.36
2019-04-16T01:27:09.913Z,998.34
2019-04-16T01:28:10.009Z,998.38
2019-04-16T01:29:09.792Z,998.38
2019-04-16T01:30:09.840Z,998.37
2019-04-16T01:31:10.041Z,998.33
2019-04-16T01:32:11.697Z,998.33
2019-04-16T01:33:14.430Z,998.30
2019-04-16T01:34:09.989Z,998.28
2019-04-16T01:35:10.279Z,998.27
2019-04-16T01:36:10.225Z,998.26
2019-04-16T01:37:10.224Z,998.27
2019-04-16T01:38:10.441Z,998.28
2019-04-16T01:39:17.394Z,998.26
2019-04-16T01:40:10.203Z,998.25
2019-04-16T01:41:10.274Z,998.25
2019-04-16T01:42:10.276Z,998.25
2019-04-16T01:43:10.341Z,998.26
2019-04-16T01:44:10.430Z,998.24
2019-04-16T01:45:10.396Z,998.24
2019-04-16T01:46:10.435Z,998.21
2019-04-16T01:47:10.467Z,998.27
2019-04-16T01:48:10.651Z,998.27
2019-04-16T01:49:11.487Z,998.21
2019-04-16T01:50:13.916Z,998.25
2019-04-16T01:51:12.572Z,998.24
2019-04-16T01:52:10.648Z,998.25
2019-04-16T01:53:10.685Z,998.24
2019-04-16T01:54:10.721Z,998.24
2019-04-16T01:55:10.764Z,998.24
2019-04-16T01:56:11.019Z,998.27
2019-04-16T01:57:11.079Z,998.25
2019-04-16T01:58:11.060Z,998.27
2019-04-16T01:59:10.905Z,998.27
2019-04-16T02:00:10.945Z,998.26
2019-04-16T02:01:11.457Z,998.26
2019-04-16T02:02:14.778Z,998.31
2019-04-16T02:03:11.055Z,998.31
2019-04-16T02:04:11.091Z,998.27
2019-04-16T02:05:11.132Z,998.26
2019-04-16T02:06:11.165Z,998.30
2019-04-16T02:07:11.204Z,998.30
2019-04-16T02:08:11.240Z,998.33
2019-04-16T02:09:21.957Z,998.31
2019-04-16T02:10:11.313Z,998.29
2019-04-16T02:11:11.456Z,998.31
2019-04-16T02:12:13.506Z,998.30
2019-04-16T02:13:14.582Z,998.33
2019-04-16T02:14:11.471Z,998.34
2019-04-16T02:15:11.503Z,998.39
2019-04-16T02:16:11.537Z,998.32
2019-04-16T02:17:11.572Z,998.33
2019-04-16T02:18:11.610Z,998.35
2019-04-16T02:19:11.647Z,998.32
2019-04-16T02:20:11.683Z,998.34
2019-04-16T02:21:11.720Z,998.35
2019-04-16T02:22:13.684Z,998.31
2019-04-16T02:23:13.569Z,998.34
2019-04-16T02:24:11.830Z,998.30
2019-04-16T02:25:11.866Z,998.29
2019-04-16T02:26:11.904Z,998.32
2019-04-16T02:27:11.939Z,998.34
2019-04-16T02:28:11.981Z,998.32
2019-04-16T02:29:12.014Z,998.34
2019-04-16T02:30:12.052Z,998.34
2019-04-16T02:31:15.662Z,998.30
2019-04-16T02:32:12.126Z,998.31
2019-04-16T02:33:12.163Z,998.30
2019-04-16T02:34:12.198Z,998.30
2019-04-16T02:35:12.233Z,998.30
2019-04-16T02:36:12.277Z,998.29
2019-04-16T02:37:12.309Z,998.30
2019-04-16T02:38:13.838Z,998.28
2019-04-16T02:39:12.381Z,998.29
2019-04-16T02:40:16.602Z,998.30
2019-04-16T02:41:12.467Z,998.28
2019-04-16T02:42:12.494Z,998.28
2019-04-16T02:43:12.529Z,998.29
2019-04-16T02:44:15.911Z,998.27
2019-04-16T02:45:12.601Z,998.28
2019-04-16T02:46:12.639Z,998.27
2019-04-16T02:47:12.675Z,998.25
2019-04-16T02:48:16.741Z,998.24
2019-04-16T02:49:12.750Z,998.25
2019-04-16T02:50:12.787Z,998.26
2019-04-16T02:51:12.833Z,998.24
2019-04-16T02:52:16.623Z,998.21
2019-04-16T02:53:12.897Z,998.19
2019-04-16T02:54:12.933Z,998.19
2019-04-16T02:55:12.972Z,998.15
2019-04-16T02:56:17.765Z,998.11
2019-04-16T02:57:13.049Z,998.16
2019-04-16T02:58:13.082Z,998.16
2019-04-16T02:59:13.708Z,998.16
2019-04-16T03:00:17.575Z,998.14
2019-04-16T03:01:13.187Z,998.17
2019-04-16T03:02:13.225Z,998.12
2019-04-16T03:03:13.258Z,998.16
2019-04-16T03:04:13.299Z,998.10
2019-04-16T03:05:13.334Z,998.11
2019-04-16T03:06:13.368Z,998.14
2019-04-16T03:07:13.405Z,998.13
2019-04-16T03:08:13.442Z,998.14
2019-04-16T03:09:13.478Z,998.12
2019-04-16T03:10:14.027Z,998.10
2019-04-16T03:11:13.747Z,998.07
2019-04-16T03:12:13.586Z,998.10
2019-04-16T03:13:13.664Z,998.08
2019-04-16T03:14:13.662Z,998.11
2019-04-16T03:15:13.696Z,998.09
2019-04-16T03:16:13.733Z,998.07
2019-04-16T03:17:13.770Z,998.05
2019-04-16T03:18:14.875Z,998.09
2019-04-16T03:19:18.845Z,998.03
2019-04-16T03:20:13.881Z,998.08
2019-04-16T03:21:13.913Z,998.01
2019-04-16T03:22:13.951Z,998.03
2019-04-16T03:23:13.986Z,998.06
2019-04-16T03:24:14.024Z,998.08
2019-04-16T03:25:14.650Z,998.05
2019-04-16T03:26:17.482Z,998.06
2019-04-16T03:27:14.284Z,998.07
2019-04-16T03:28:14.175Z,998.07
2019-04-16T03:29:14.207Z,998.06
2019-04-16T03:30:14.289Z,998.07
2019-04-16T03:31:20.317Z,998.02
2019-04-16T03:32:15.580Z,998.03
2019-04-16T03:33:15.766Z,998.04
2019-04-16T03:34:14.388Z,998.04
2019-04-16T03:35:14.421Z,998.07
2019-04-16T03:36:14.461Z,998.01
2019-04-16T03:37:14.497Z,998.01
2019-04-16T03:38:14.532Z,998.02
2019-04-16T03:39:14.567Z,997.99
2019-04-16T03:40:18.049Z,997.99
2019-04-16T03:41:14.688Z,997.99
2019-04-16T03:42:14.684Z,997.97
2019-04-16T03:43:14.711Z,997.95
2019-04-16T03:44:14.748Z,997.98
2019-04-16T03:45:14.784Z,997.96
2019-04-16T03:46:14.820Z,997.96
2019-04-16T03:47:15.720Z,997.94
2019-04-16T03:48:14.896Z,997.92
2019-04-16T03:49:14.930Z,997.91
2019-04-16T03:50:14.966Z,997.91
2019-04-16T03:51:15.013Z,997.90
2019-04-16T03:52:15.040Z,997.92
2019-04-16T03:53:17.579Z,997.89
2019-04-16T03:54:15.113Z,997.88
2019-04-16T03:55:15.149Z,997.85
2019-04-16T03:56:15.186Z,997.87
2019-04-16T03:57:15.251Z,997.84
2019-04-16T03:58:15.317Z,997.88
2019-04-16T03:59:15.331Z,997.86
2019-04-16T04:00:15.367Z,997.87
2019-04-16T04:01:15.571Z,997.88
2019-04-16T04:02:21.272Z,997.89
2019-04-16T04:03:15.435Z,997.89
2019-04-16T04:04:15.490Z,997.88
2019-04-16T04:05:15.599Z,997.89
2019-04-16T04:06:15.669Z,997.87
2019-04-16T04:07:15.585Z,997.91
2019-04-16T04:08:17.379Z,997.88
2019-04-16T04:09:18.579Z,997.83
2019-04-16T04:10:29.117Z,997.83
2019-04-16T04:11:15.726Z,997.87
2019-04-16T04:12:15.860Z,997.88
2019-04-16T04:13:18.616Z,997.90
2019-04-16T04:14:15.831Z,997.88
2019-04-16T04:15:15.868Z,997.89
2019-04-16T04:16:15.907Z,997.88
2019-04-16T04:17:15.938Z,997.91
2019-04-16T04:18:15.975Z,997.87
2019-04-16T04:19:16.207Z,997.85
2019-04-16T04:20:18.341Z,997.84
2019-04-16T04:21:21.183Z,997.86
2019-04-16T04:22:16.120Z,997.84
2019-04-16T04:23:16.155Z,997.84
2019-04-16T04:24:16.190Z,997.85
2019-04-16T04:25:16.228Z,997.84
2019-04-16T04:26:16.270Z,997.84
2019-04-16T04:27:19.017Z,997.82
2019-04-16T04:28:19.655Z,997.86
2019-04-16T04:29:16.380Z,997.85
2019-04-16T04:30:16.415Z,997.85
2019-04-16T04:31:16.442Z,997.79
2019-04-16T04:32:16.486Z,997.82
2019-04-16T04:33:16.522Z,997.81
2019-04-16T04:34:17.419Z,997.85
2019-04-16T04:35:20.482Z,997.87
2019-04-16T04:36:18.897Z,997.87
2019-04-16T04:37:16.660Z,997.87
2019-04-16T04:38:16.697Z,997.90
2019-04-16T04:39:16.730Z,997.91
2019-04-16T04:40:17.507Z,997.89
2019-04-16T04:41:16.811Z,997.90
2019-04-16T04:42:18.903Z,997.88
2019-04-16T04:43:16.880Z,997.88
2019-04-16T04:44:16.915Z,997.91
2019-04-16T04:45:16.953Z,997.89
2019-04-16T04:46:16.983Z,997.92
2019-04-16T04:47:19.373Z,997.90
2019-04-16T04:48:17.055Z,997.90
2019-04-16T04:49:17.090Z,997.89
2019-04-16T04:50:17.127Z,997.94
2019-04-16T04:51:17.177Z,997.92
2019-04-16T04:52:17.207Z,997.93
2019-04-16T04:53:19.224Z,997.91
2019-04-16T04:54:21.604Z,997.90
2019-04-16T04:55:17.307Z,997.90
2019-04-16T04:56:19.320Z,997.89
2019-04-16T04:57:17.380Z,997.90
2019-04-16T04:58:17.415Z,997.94
2019-04-16T04:59:17.449Z,997.95
2019-04-16T05:00:17.486Z,997.92
2019-04-16T05:01:17.523Z,997.90
2019-04-16T05:02:17.559Z,997.90
2019-04-16T05:03:17.594Z,997.91
2019-04-16T05:04:20.344Z,997.89
2019-04-16T05:05:17.669Z,997.94
2019-04-16T05:06:17.704Z,997.95
2019-04-16T05:07:17.738Z,998.00
2019-04-16T05:08:17.774Z,997.94
2019-04-16T05:09:17.853Z,997.94
2019-04-16T05:10:17.903Z,997.95
2019-04-16T05:11:17.882Z,997.97
2019-04-16T05:12:21.329Z,997.97
2019-04-16T05:13:17.960Z,998.01
2019-04-16T05:14:17.999Z,997.96
2019-04-16T05:15:18.026Z,997.98
2019-04-16T05:16:18.060Z,998.04
2019-04-16T05:17:18.096Z,998.04
2019-04-16T05:18:18.142Z,998.05
2019-04-16T05:19:18.167Z,998.05
2019-04-16T05:20:18.207Z,998.03
2019-04-16T05:21:19.514Z,998.05
2019-04-16T05:22:21.809Z,998.07
2019-04-16T05:23:18.321Z,998.08
2019-04-16T05:24:18.355Z,998.07
2019-04-16T05:25:18.432Z,998.08
2019-04-16T05:26:18.586Z,998.10
2019-04-16T05:27:18.460Z,998.10
2019-04-16T05:28:18.494Z,998.07
2019-04-16T05:29:18.765Z,998.15
2019-04-16T05:30:21.105Z,998.17
2019-04-16T05:31:18.675Z,998.18
2019-04-16T05:32:18.647Z,998.18
2019-04-16T05:33:18.675Z,998.18
2019-04-16T05:34:18.802Z,998.21
2019-04-16T05:35:18.867Z,998.23
2019-04-16T05:36:21.141Z,998.20
2019-04-16T05:37:20.138Z,998.19
2019-04-16T05:38:20.512Z,998.20
2019-04-16T05:39:18.900Z,998.23
2019-04-16T05:40:18.928Z,998.25
2019-04-16T05:41:21.971Z,998.24
2019-04-16T05:42:19.001Z,998.25
2019-04-16T05:43:22.087Z,998.31
2019-04-16T05:44:19.072Z,998.26
2019-04-16T05:45:19.108Z,998.29
2019-04-16T05:46:19.148Z,998.27
2019-04-16T05:47:19.180Z,998.30
2019-04-16T05:48:21.661Z,998.30
2019-04-16T05:49:19.258Z,998.29
2019-04-16T05:50:19.300Z,998.29
2019-04-16T05:51:19.361Z,998.28
2019-04-16T05:52:19.363Z,998.30
2019-04-16T05:53:19.407Z,998.32
2019-04-16T05:54:19.452Z,998.32
2019-04-16T05:55:19.530Z,998.38
2019-04-16T05:56:22.668Z,998.33
2019-04-16T05:57:19.553Z,998.34
2019-04-16T05:58:19.580Z,998.32
2019-04-16T05:59:19.618Z,998.31
2019-04-16T06:00:19.655Z,998.29
2019-04-16T06:01:19.731Z,998.32
2019-04-16T06:02:20.038Z,998.26
2019-04-16T06:03:21.864Z,998.31
2019-04-16T06:04:24.292Z,998.27
2019-04-16T06:05:19.840Z,998.33
2019-04-16T06:06:19.873Z,998.32
2019-04-16T06:07:19.911Z,998.31
2019-04-16T06:08:19.947Z,998.31
2019-04-16T06:09:19.982Z,998.35
2019-04-16T06:10:20.020Z,998.28
2019-04-16T06:11:28.675Z,998.30
2019-04-16T06:12:20.306Z,998.28
2019-04-16T06:13:20.141Z,998.27
2019-04-16T06:14:20.179Z,998.29
2019-04-16T06:15:22.278Z,998.26
2019-04-16T06:16:24.155Z,998.31
2019-04-16T06:17:20.282Z,998.29
2019-04-16T06:18:20.316Z,998.28
2019-04-16T06:19:20.351Z,998.28
2019-04-16T06:20:21.413Z,998.32
2019-04-16T06:21:25.023Z,998.28
2019-04-16T06:22:20.634Z,998.27
2019-04-16T06:23:20.604Z,998.30
2019-04-16T06:24:20.535Z,998.28
2019-04-16T06:25:20.575Z,998.30
2019-04-16T06:26:20.608Z,998.27
2019-04-16T06:27:20.646Z,998.27
2019-04-16T06:28:20.683Z,998.25
2019-04-16T06:29:20.719Z,998.24
2019-04-16T06:30:21.098Z,998.21
2019-04-16T06:31:20.793Z,998.20
2019-04-16T06:32:20.831Z,998.20
2019-04-16T06:33:20.869Z,998.24
2019-04-16T06:34:23.644Z,998.25
2019-04-16T06:35:20.951Z,998.24
2019-04-16T06:36:20.980Z,998.25
2019-04-16T06:37:26.461Z,998.29
2019-04-16T06:38:21.058Z,998.23
2019-04-16T06:39:21.094Z,998.24
2019-04-16T06:40:21.130Z,998.23
2019-04-16T06:41:21.166Z,998.21
2019-04-16T06:42:22.972Z,998.23
2019-04-16T06:43:25.123Z,998.20
2019-04-16T06:44:21.281Z,998.20
2019-04-16T06:45:21.319Z,998.20
2019-04-16T06:46:21.356Z,998.14
2019-04-16T06:47:21.392Z,998.16
2019-04-16T06:48:21.441Z,998.12
2019-04-16T06:49:21.469Z,998.14
2019-04-16T06:50:31.206Z,998.10
2019-04-16T06:51:21.552Z,998.08
2019-04-16T06:52:21.584Z,998.05
2019-04-16T06:53:23.532Z,998.07
2019-04-16T06:54:21.675Z,998.11
2019-04-16T06:55:21.738Z,998.06
2019-04-16T06:56:21.732Z,998.06
2019-04-16T06:57:21.770Z,998.06
2019-04-16T06:58:21.824Z,998.04
2019-04-16T06:59:21.847Z,998.03
2019-04-16T07:00:21.899Z,998.05
2019-04-16T07:01:23.003Z,998.07
2019-04-16T07:02:24.394Z,998.07
2019-04-16T07:03:25.867Z,998.02
2019-04-16T07:04:22.037Z,998.02
2019-04-16T07:05:22.221Z,998.04
2019-04-16T07:06:22.182Z,998.01
2019-04-16T07:07:22.572Z,998.00
2019-04-16T07:08:22.192Z,997.99
2019-04-16T07:09:25.787Z,997.99
2019-04-16T07:10:22.367Z,998.02
2019-04-16T07:11:22.304Z,998.00
2019-04-16T07:12:22.413Z,998.02
2019-04-16T07:13:22.389Z,997.99
2019-04-16T07:14:22.582Z,998.00
2019-04-16T07:15:23.752Z,998.01
2019-04-16T07:16:22.556Z,998.01
2019-04-16T07:17:22.588Z,997.99
2019-04-16T07:18:22.626Z,997.99
2019-04-16T07:19:22.919Z,997.99
2019-04-16T07:20:22.650Z,998.02
2019-04-16T07:21:22.689Z,998.00
2019-04-16T07:22:22.729Z,997.97
2019-04-16T07:23:24.900Z,998.02
2019-04-16T07:24:23.602Z,998.00
2019-04-16T07:25:27.030Z,998.02
2019-04-16T07:26:22.892Z,998.01
2019-04-16T07:27:22.990Z,998.01
2019-04-16T07:28:25.842Z,998.00
2019-04-16T07:29:23.056Z,997.98
2019-04-16T07:30:23.045Z,998.01
2019-04-16T07:31:33.345Z,998.01
2019-04-16T07:32:23.112Z,998.01
2019-04-16T07:33:23.151Z,998.04
2019-04-16T07:34:23.245Z,998.05
2019-04-16T07:35:23.241Z,998.00
2019-04-16T07:36:24.227Z,998.00
2019-04-16T07:37:23.314Z,998.01
2019-04-16T07:38:23.367Z,998.01
2019-04-16T07:39:30.070Z,997.98
2019-04-16T07:40:23.426Z,997.97
2019-04-16T07:41:23.464Z,997.95
2019-04-16T07:42:26.208Z,997.94
2019-04-16T07:43:23.539Z,997.93
2019-04-16T07:44:23.595Z,997.96
2019-04-16T07:45:23.624Z,997.93
2019-04-16T07:46:23.657Z,997.93
2019-04-16T07:47:23.695Z,997.91
2019-04-16T07:48:23.736Z,997.91
2019-04-16T07:49:26.566Z,997.93
2019-04-16T07:50:23.817Z,997.92
2019-04-16T07:51:23.855Z,997.92
2019-04-16T07:52:23.935Z,997.90
2019-04-16T07:53:23.932Z,997.92
2019-04-16T07:54:23.983Z,997.93
2019-04-16T07:55:26.695Z,997.94
2019-04-16T07:56:24.052Z,997.98
2019-04-16T07:57:24.102Z,997.92
2019-04-16T07:58:24.131Z,997.90
2019-04-16T07:59:24.168Z,997.98
2019-04-16T08:00:24.209Z,997.95
2019-04-16T08:01:24.247Z,997.96
2019-04-16T08:02:24.292Z,997.97
2019-04-16T08:03:26.829Z,997.92
2019-04-16T08:04:29.045Z,997.89
2019-04-16T08:05:27.622Z,997.86
2019-04-16T08:06:24.456Z,997.84
2019-04-16T08:07:24.485Z,997.86
2019-04-16T08:08:25.474Z,997.83
2019-04-16T08:09:28.948Z,997.84
2019-04-16T08:10:24.617Z,997.79
2019-04-16T08:11:24.643Z,997.80
2019-04-16T08:12:30.555Z,997.79
2019-04-16T08:13:24.730Z,997.76
2019-04-16T08:14:24.765Z,997.79
2019-04-16T08:15:24.801Z,997.75
2019-04-16T08:16:24.847Z,997.79
2019-04-16T08:17:24.883Z,997.78
2019-04-16T08:18:24.924Z,997.81
2019-04-16T08:19:36.140Z,997.79
2019-04-16T08:20:25.006Z,997.81
2019-04-16T08:21:25.045Z,997.78
2019-04-16T08:22:25.105Z,997.71
2019-04-16T08:23:25.122Z,997.77
2019-04-16T08:24:25.572Z,997.72
2019-04-16T08:25:25.208Z,997.75
2019-04-16T08:26:25.246Z,997.74
2019-04-16T08:27:25.281Z,997.74
2019-04-16T08:28:25.322Z,997.76
2019-04-16T08:29:26.619Z,997.71
2019-04-16T08:30:25.406Z,997.75
2019-04-16T08:31:25.443Z,997.73
2019-04-16T08:32:26.040Z,997.76
2019-04-16T08:33:28.238Z,997.75
2019-04-16T08:34:25.563Z,997.75
2019-04-16T08:35:25.608Z,997.73
2019-04-16T08:36:25.644Z,997.72
2019-04-16T08:37:25.688Z,997.69
2019-04-16T08:38:26.131Z,997.72
2019-04-16T08:39:25.766Z,997.66
2019-04-16T08:40:25.815Z,997.70
2019-04-16T08:41:25.856Z,997.70
2019-04-16T08:42:29.330Z,997.73
2019-04-16T08:43:26.617Z,997.72
2019-04-16T08:44:25.967Z,997.70
2019-04-16T08:45:26.016Z,997.73
2019-04-16T08:46:28.213Z,997.68
2019-04-16T08:47:26.097Z,997.73
2019-04-16T08:48:26.135Z,997.72
2019-04-16T08:49:26.171Z,997.71
2019-04-16T08:50:27.002Z,997.73
2019-04-16T08:51:30.691Z,997.71
2019-04-16T08:52:26.298Z,997.70
2019-04-16T08:53:26.334Z,997.70
2019-04-16T08:54:26.384Z,997.68
2019-04-16T08:55:26.415Z,997.66
2019-04-16T08:56:26.466Z,997.65
2019-04-16T08:57:31.827Z,997.67
2019-04-16T08:58:26.538Z,997.62
2019-04-16T08:59:26.577Z,997.65
2019-04-16T09:00:26.626Z,997.67
2019-04-16T09:01:26.661Z,997.70
2019-04-16T09:02:27.322Z,997.68
2019-04-16T09:03:29.899Z,997.71
2019-04-16T09:04:26.787Z,997.66
2019-04-16T09:05:26.824Z,997.68
2019-04-16T09:06:26.867Z,997.66
2019-04-16T09:07:26.908Z,997.65
2019-04-16T09:08:26.949Z,997.63
2019-04-16T09:09:26.991Z,997.70
2019-04-16T09:10:29.954Z,997.65
2019-04-16T09:11:28.532Z,997.65
2019-04-16T09:12:27.154Z,997.57
2019-04-16T09:13:27.155Z,997.60
2019-04-16T09:14:27.206Z,997.58
2019-04-16T09:15:27.579Z,997.55
2019-04-16T09:16:27.281Z,997.58
2019-04-16T09:17:27.322Z,997.56
2019-04-16T09:18:27.367Z,997.56
2019-04-16T09:19:27.414Z,997.51
2019-04-16T09:20:27.449Z,997.53
2019-04-16T09:21:28.177Z,997.51
2019-04-16T09:22:27.533Z,997.52
2019-04-16T09:23:27.572Z,997.50
2019-04-16T09:24:27.616Z,997.53
2019-04-16T09:25:27.656Z,997.52
2019-04-16T09:26:27.696Z,997.54
2019-04-16T09:27:29.632Z,997.53
2019-04-16T09:28:31.176Z,997.51
2019-04-16T09:29:27.821Z,997.50
2019-04-16T09:30:27.867Z,997.50
2019-04-16T09:31:27.910Z,997.48
2019-04-16T09:32:28.537Z,997.48
2019-04-16T09:33:30.407Z,997.45
2019-04-16T09:34:28.036Z,997.42
2019-04-16T09:35:28.073Z,997.47
2019-04-16T09:36:28.115Z,997.41
2019-04-16T09:37:28.692Z,997.50
2019-04-16T09:38:28.200Z,997.49
2019-04-16T09:39:28.248Z,997.46
2019-04-16T09:40:28.284Z,997.47
2019-04-16T09:41:28.333Z,997.43
2019-04-16T09:42:28.469Z,997.48
2019-04-16T09:43:28.413Z,997.43
2019-04-16T09:44:31.042Z,997.43
2019-04-16T09:45:28.493Z,997.36
2019-04-16T09:46:49.834Z,997.40
2019-04-16T09:47:29.226Z,997.37
2019-04-16T09:48:28.645Z,997.36
2019-04-16T09:49:28.663Z,997.40
2019-04-16T09:50:28.706Z,997.44
2019-04-16T09:51:28.857Z,997.43
2019-04-16T09:52:28.796Z,997.42
2019-04-16T09:53:33.999Z,997.38
2019-04-16T09:54:28.877Z,997.44
2019-04-16T09:55:28.917Z,997.42
2019-04-16T09:56:29.852Z,997.40
2019-04-16T09:57:31.396Z,997.39
2019-04-16T09:58:29.051Z,997.38
2019-04-16T09:59:29.090Z,997.30
2019-04-16T10:00:29.127Z,997.25
2019-04-16T10:01:29.169Z,997.24
2019-04-16T10:02:29.217Z,997.22
2019-04-16T10:03:29.258Z,997.23
2019-04-16T10:04:29.298Z,997.22
2019-04-16T10:05:30.188Z,997.22
2019-04-16T10:06:29.383Z,997.22
2019-04-16T10:07:29.434Z,997.23
2019-04-16T10:08:29.659Z,997.24
2019-04-16T10:09:29.521Z,997.22
2019-04-16T10:10:29.555Z,997.19
2019-04-16T10:11:29.598Z,997.17
2019-04-16T10:12:29.644Z,997.12
2019-04-16T10:13:34.010Z,997.13
2019-04-16T10:14:29.749Z,997.13
2019-04-16T10:15:29.785Z,997.09
2019-04-16T10:16:29.812Z,997.11
2019-04-16T10:17:29.860Z,997.06
2019-04-16T10:18:34.724Z,997.07
2019-04-16T10:19:29.945Z,997.07
2019-04-16T10:20:29.980Z,997.09
2019-04-16T10:21:30.042Z,997.02
2019-04-16T10:22:30.087Z,997.02
2019-04-16T10:23:30.108Z,996.99
2019-04-16T10:24:30.154Z,996.99
2019-04-16T10:25:33.655Z,997.01
2019-04-16T10:26:30.264Z,996.96
2019-04-16T10:27:32.255Z,997.01
2019-04-16T10:28:30.331Z,996.95
2019-04-16T10:29:30.366Z,996.96
2019-04-16T10:30:30.442Z,996.94
2019-04-16T10:31:30.471Z,996.94
2019-04-16T10:32:30.492Z,996.89
2019-04-16T10:33:30.533Z,996.92
2019-04-16T10:34:30.578Z,996.92
2019-04-16T10:35:30.632Z,996.89
2019-04-16T10:36:30.663Z,996.85
2019-04-16T10:37:30.718Z,996.86
2019-04-16T10:38:30.778Z,996.81
2019-04-16T10:39:30.791Z,996.86
2019-04-16T10:40:30.835Z,996.86
2019-04-16T10:41:30.897Z,996.83
2019-04-16T10:42:30.949Z,996.82
2019-04-16T10:43:43.942Z,996.83
2019-04-16T10:44:31.021Z,996.82
2019-04-16T10:45:31.051Z,996.81
2019-04-16T10:46:31.102Z,996.77
2019-04-16T10:47:31.146Z,996.77
2019-04-16T10:48:31.204Z,996.74
2019-04-16T10:49:31.234Z,996.69
2019-04-16T10:50:31.269Z,996.77
2019-04-16T10:51:31.318Z,996.75
2019-04-16T10:52:31.351Z,996.74
2019-04-16T10:53:31.400Z,996.72
2019-04-16T10:54:33.765Z,996.75
2019-04-16T10:55:31.485Z,996.75
2019-04-16T10:56:31.536Z,996.76
2019-04-16T10:57:31.570Z,996.74
2019-04-16T10:58:31.618Z,996.79
2019-04-16T10:59:31.680Z,996.73
2019-04-16T11:00:31.706Z,996.79
2019-04-16T11:01:35.030Z,996.83
2019-04-16T11:02:31.822Z,996.79
2019-04-16T11:03:34.461Z,996.77
2019-04-16T11:04:31.894Z,996.81
2019-04-16T11:05:31.988Z,996.78
2019-04-16T11:06:32.006Z,996.80
2019-04-16T11:07:32.008Z,996.79
2019-04-16T11:08:32.045Z,996.80
2019-04-16T11:09:32.093Z,996.80
2019-04-16T11:10:32.137Z,996.80
2019-04-16T11:11:32.179Z,996.74
2019-04-16T11:12:32.220Z,996.71
2019-04-16T11:13:32.286Z,996.72
2019-04-16T11:14:32.328Z,996.74
2019-04-16T11:15:32.357Z,996.74
2019-04-16T11:16:35.830Z,996.71
2019-04-16T11:17:32.435Z,996.72
2019-04-16T11:18:32.504Z,996.70
2019-04-16T11:19:32.528Z,996.69
2019-04-16T11:20:32.638Z,996.68
2019-04-16T11:21:32.613Z,996.73
2019-04-16T11:22:32.653Z,996.70
2019-04-16T11:23:32.708Z,996.67
2019-04-16T11:24:32.748Z,996.68
2019-04-16T11:25:32.783Z,996.70
2019-04-16T11:26:32.826Z,996.68
2019-04-16T11:27:32.871Z,996.68
2019-04-16T11:28:32.940Z,996.67
2019-04-16T11:29:32.974Z,996.68
2019-04-16T11:30:33.017Z,996.70
2019-04-16T11:31:33.089Z,996.67
2019-04-16T11:32:33.122Z,996.71
2019-04-16T11:33:33.149Z,996.63
2019-04-16T11:34:33.180Z,996.62
2019-04-16T11:35:33.227Z,996.63
2019-04-16T11:36:33.265Z,996.63
2019-04-16T11:37:36.235Z,996.64
2019-04-16T11:38:33.354Z,996.65
2019-04-16T11:39:33.430Z,996.63
2019-04-16T11:40:33.458Z,996.64
2019-04-16T11:41:33.490Z,996.67
2019-04-16T11:42:33.531Z,996.68
2019-04-16T11:43:33.596Z,996.70
2019-04-16T11:44:33.612Z,996.70
2019-04-16T11:45:33.672Z,996.65
2019-04-16T11:46:33.699Z,996.64
2019-04-16T11:47:34.745Z,996.59
2019-04-16T11:48:37.162Z,996.60
2019-04-16T11:49:33.871Z,996.61
2019-04-16T11:50:35.972Z,996.64
2019-04-16T11:51:33.970Z,996.60
2019-04-16T11:52:33.990Z,996.63
2019-04-16T11:53:34.044Z,996.65
2019-04-16T11:54:34.055Z,996.62
2019-04-16T11:55:34.143Z,996.60
2019-04-16T11:56:34.138Z,996.62
2019-04-16T11:57:34.205Z,996.58
2019-04-16T11:58:34.244Z,996.59
2019-04-16T11:59:37.903Z,996.61
2019-04-16T12:00:34.318Z,996.58
2019-04-16T12:01:34.382Z,996.59
2019-04-16T12:02:34.403Z,996.59
2019-04-16T12:03:36.591Z,996.59
2019-04-16T12:04:34.525Z,996.62
2019-04-16T12:05:34.535Z,996.61
2019-04-16T12:06:34.578Z,996.58
2019-04-16T12:07:34.670Z,996.64
2019-04-16T12:08:34.709Z,996.65
2019-04-16T12:09:34.717Z,996.66
2019-04-16T12:10:34.803Z,996.63
2019-04-16T12:11:34.806Z,996.66
2019-04-16T12:12:34.886Z,996.64
2019-04-16T12:13:34.892Z,996.67
2019-04-16T12:14:35.180Z,996.65
2019-04-16T12:15:34.993Z,996.63
2019-04-16T12:16:35.036Z,996.63
2019-04-16T12:17:36.511Z,996.65
2019-04-16T12:18:35.112Z,996.64
2019-04-16T12:19:35.176Z,996.68
2019-04-16T12:20:35.211Z,996.69
2019-04-16T12:21:35.260Z,996.68
2019-04-16T12:22:35.288Z,996.67
2019-04-16T12:23:35.348Z,996.71
2019-04-16T12:24:35.403Z,996.70
2019-04-16T12:25:35.413Z,996.67
2019-04-16T12:26:35.467Z,996.68
2019-04-16T12:27:35.534Z,996.64
2019-04-16T12:28:35.547Z,996.68